Time;durP1;ratioP1;P1;durP2;ratioP2;P2;SDS_P1;SDS_P2;PMS_P1;PMS_P2;Temp;Humidity;BMP_temperature;BMP_pressure;BME280_temperature;BME280_humidity;BME280_pressure;Samples;Min_cycle;Max_cycle;Signal;HPM_P1;HPM_P2
2022/06/11 00:01:35;;;;;;;3.20;2.20;;;20.90;62.10;;;21.40;42.78;99246.09;4848784;28;124027;-92
2022/06/11 00:04:10;;;;;;;6.17;2.00;;;20.90;62.30;;;21.38;42.92;99257.72;4846543;28;118722;-92
2022/06/11 00:06:43;;;;;;;2.63;2.00;;;20.90;62.50;;;21.36;43.01;99250.84;4861132;29;119186;-92
2022/06/11 00:09:11;;;;;;;2.40;2.00;;;20.80;62.50;;;21.33;43.52;99257.19;4850025;29;123501;-92
2022/06/11 00:11:38;;;;;;;2.00;1.73;;;20.80;62.70;;;21.30;43.55;99252.31;4851373;28;123743;-93
2022/06/11 00:14:27;;;;;;;4.10;2.43;;;20.80;62.80;;;21.26;43.41;99245.84;4861752;28;119792;-92
2022/06/11 00:16:57;;;;;;;1.83;1.70;;;20.80;63.00;;;21.23;43.66;99253.00;4864066;28;118087;-91
2022/06/11 00:23:06;;;;;;;2.10;1.73;;;20.70;63.10;;;21.15;43.73;99262.50;4878278;28;124037;-92
2022/06/11 00:26:10;;;;;;;3.30;2.00;;;20.60;63.20;;;21.08;43.60;99265.97;4861527;28;119648;-92
2022/06/11 00:28:39;;;;;;;3.27;2.20;;;20.60;63.40;;;21.07;43.80;99255.13;4858605;28;118687;-92
2022/06/11 00:31:08;;;;;;;5.60;2.40;;;20.50;63.50;;;21.04;43.71;99256.66;4882297;28;123142;-91
2022/06/11 00:33:36;;;;;;;3.90;2.80;;;20.50;63.60;;;21.03;43.91;99266.25;4869462;28;123793;-91
2022/06/11 00:36:06;;;;;;;2.47;1.83;;;20.50;63.80;;;21.01;43.72;99257.41;4866048;28;119810;-91
2022/06/11 00:38:36;;;;;;;2.77;1.87;;;20.50;64.00;;;20.99;44.08;99256.16;4875879;28;118014;-91
2022/06/11 00:41:24;;;;;;;2.00;1.80;;;20.40;64.10;;;20.96;43.87;99254.91;4866342;29;124593;-91
2022/06/11 00:43:53;;;;;;;2.63;1.97;;;20.40;64.20;;;20.93;44.39;99255.66;4844764;29;123065;-90
2022/06/11 00:47:09;;;;;;;2.90;2.43;;;20.40;64.40;;;20.87;44.31;99257.91;4859133;28;118965;-91
2022/06/11 00:49:58;;;;;;;4.43;2.10;;;20.40;64.60;;;20.84;44.30;99257.84;4810430;29;118971;-91
2022/06/11 00:52:42;;;;;;;3.30;1.80;;;20.30;64.70;;;20.83;44.14;99247.81;4813639;29;122760;-90
2022/06/11 00:55:20;;;;;;;2.40;2.17;;;20.30;64.90;;;20.80;44.47;99252.16;4807661;29;123347;-91
2022/06/11 00:58:19;;;;;;;2.30;2.00;;;20.30;65.10;;;20.76;44.60;99253.28;4803175;29;118771;-92
2022/06/11 01:01:07;;;;;;;4.83;2.27;;;20.20;65.20;;;20.73;44.49;99252.81;4802571;29;118328;-90
2022/06/11 01:03:47;;;;;;;2.90;1.67;;;20.20;65.30;;;20.72;44.55;99248.41;4812229;29;123716;-91
2022/06/11 01:06:51;;;;;;;2.20;1.73;;;20.20;65.50;;;20.68;44.64;99249.50;4814692;29;121445;-90
2022/06/11 01:09:40;;;;;;;2.33;2.13;;;20.10;65.60;;;20.65;44.86;99248.25;4803448;29;118853;-91
2022/06/11 01:12:47;;;;;;;2.23;1.90;;;20.10;65.70;;;20.59;44.82;99249.72;4789863;29;119453;-91
2022/06/11 01:15:48;;;;;;;2.30;2.10;;;20.10;65.90;;;20.54;44.93;99250.00;4804904;29;122165;-91
2022/06/11 01:18:50;;;;;;;2.40;1.87;;;20.00;65.90;;;20.50;45.11;99246.31;4805126;29;122069;-91
2022/06/11 01:21:50;;;;;;;2.10;1.83;;;20.00;66.10;;;20.47;45.14;99249.81;4793739;29;119056;-91
2022/06/11 01:24:41;;;;;;;2.60;2.10;;;20.00;66.30;;;20.46;44.87;99248.22;4807826;29;118024;-93
2022/06/11 01:27:53;;;;;;;2.43;2.00;;;19.90;66.40;;;20.41;45.08;99248.50;4848537;28;123761;-91
2022/06/11 01:30:50;;;;;;;2.57;2.17;;;19.90;66.50;;;20.37;45.35;99250.41;4833729;29;123422;-91
2022/06/11 01:41:27;;;;;;;2.53;1.97;;;19.80;66.90;;;20.21;45.53;99251.28;4860193;29;124936;-90
2022/06/11 01:44:50;;;;;;;1.63;1.53;;;19.70;67.00;;;20.18;45.46;99248.41;4852699;29;122595;-91
2022/06/11 01:52:09;;;;;;;2.30;1.70;;;19.60;67.30;;;20.09;45.54;99245.78;4867190;29;120118;-91
2022/06/11 01:55:33;;;;;;;4.40;2.00;;;19.60;67.40;;;20.05;45.72;99250.50;4871776;29;125071;-92
2022/06/11 01:58:34;;;;;;;2.10;1.90;;;19.60;67.50;;;20.05;45.53;99239.28;4833588;29;124829;-91
2022/06/11 02:05:05;;;;;;;3.00;2.13;;;19.50;67.60;;;19.97;45.75;99251.50;4874518;28;120083;-90
2022/06/11 02:08:25;;;;;;;2.73;1.87;;;19.40;67.70;;;19.92;45.65;99246.19;4864736;28;123992;-90
2022/06/11 02:11:14;;;;;;;2.67;2.00;;;19.40;67.80;;;19.90;45.96;99240.91;4866965;28;123391;-90
2022/06/11 02:14:12;;;;;;;1.97;1.77;;;19.40;67.90;;;19.87;45.49;99238.84;4878692;28;116732;-90
2022/06/11 02:17:20;;;;;;;3.70;2.43;;;19.40;68.00;;;19.84;45.88;99243.19;4885751;28;118717;-91
2022/06/11 02:23:45;;;;;;;1.83;1.73;;;19.30;68.10;;;19.81;45.99;99240.31;4882535;28;124089;-91
2022/06/11 02:26:33;;;;;;;2.43;1.80;;;19.20;68.20;;;19.80;45.80;99244.28;4868728;29;121033;-91
2022/06/11 02:29:02;;;;;;;2.07;1.40;;;19.30;68.40;;;19.79;46.06;99245.47;4871623;29;119152;-91
2022/06/11 02:32:08;;;;;;;2.50;1.97;;;19.20;68.40;;;19.75;46.07;99245.38;4853904;29;123975;-90
2022/06/11 02:38:36;;;;;;;2.40;2.20;;;19.20;68.40;;;19.71;46.06;99247.28;4875281;28;120668;-90
2022/06/11 02:41:27;;;;;;;4.20;1.90;;;19.10;68.50;;;19.70;45.95;99245.66;4854905;29;119469;-91
2022/06/11 02:43:56;;;;;;;2.20;2.00;;;19.20;68.70;;;19.67;45.98;99246.38;4878714;28;123370;-91
2022/06/11 02:50:05;;;;;;;1.87;1.67;;;19.10;68.70;;;19.58;46.19;99242.91;4876302;28;121263;-90
2022/06/11 02:53:10;;;;;;;1.80;1.70;;;19.00;68.90;;;19.53;46.10;99237.56;4874293;29;118019;-90
2022/06/11 02:55:55;;;;;;;2.33;1.93;;;19.00;69.00;;;19.54;46.21;99251.22;4893389;28;123529;-91
2022/06/11 02:58:23;;;;;;;4.03;2.30;;;19.00;69.20;;;19.52;46.35;99241.56;4877311;28;124394;-91
2022/06/11 03:04:31;;;;;;;2.13;1.63;;;19.00;69.50;;;19.47;46.66;99253.03;4875997;29;120070;-90
2022/06/11 03:10:40;;;;;;;4.87;2.20;;;18.90;69.90;;;19.40;46.92;99254.50;4878960;29;124793;-90
2022/06/11 03:13:28;;;;;;;2.43;1.90;;;18.80;70.10;;;19.36;47.07;99247.97;4880464;28;120119;-91
2022/06/11 03:15:55;;;;;;;3.20;2.27;;;18.90;70.50;;;19.33;47.14;99257.09;4879720;28;119665;-90
2022/06/11 03:22:24;;;;;;;2.90;2.13;;;18.80;70.80;;;19.27;47.24;99258.53;4869401;29;124780;-91
2022/06/11 03:25:48;;;;;;;2.90;1.83;;;18.70;71.00;;;19.26;47.43;99254.09;4872271;29;119786;-91
2022/06/11 03:28:34;;;;;;;2.97;2.13;;;18.70;71.20;;;19.27;47.52;99264.13;4876349;28;119729;-91
2022/06/11 03:35:05;;;;;;;2.13;1.83;;;18.70;71.50;;;19.23;47.52;99266.03;4862898;28;124424;-90
2022/06/11 03:38:12;;;;;;;2.27;1.90;;;18.70;71.60;;;19.23;47.48;99268.00;4870933;29;120236;-91
2022/06/11 03:55:30;;;;;;;2.27;2.00;;;18.60;72.30;;;19.15;48.00;99281.00;4875013;28;120106;-91
2022/06/11 04:01:58;;;;;;;2.03;1.47;;;18.60;72.50;;;19.21;47.87;99293.59;4879993;28;124321;-90
2022/06/11 04:09:04;;;;;;;2.70;1.80;;;18.70;73.00;;;19.33;47.72;99299.13;4878183;28;120108;-91
2022/06/11 04:11:31;;;;;;;1.83;1.63;;;18.70;73.00;;;19.37;47.87;99302.84;4855017;29;123233;-91
2022/06/11 04:14:01;;;;;;;2.00;1.50;;;18.80;73.10;;;19.38;47.79;99301.66;4865600;29;123324;-91
2022/06/11 04:20:13;;;;;;;1.97;1.77;;;18.90;73.20;;;19.38;48.05;99298.88;4865733;28;119467;-91
2022/06/11 04:23:37;;;;;;;2.63;2.00;;;18.80;73.20;;;19.37;47.91;99294.44;4872229;28;124823;-90
2022/06/11 04:26:09;;;;;;;2.93;1.90;;;18.90;73.30;;;19.37;48.13;99304.81;4873916;28;123863;-92
2022/06/11 04:32:23;;;;;;;10.83;4.70;;;18.80;73.50;;;19.23;48.26;99304.44;4870507;28;119010;-91
2022/06/11 04:34:52;;;;;;;6.17;3.47;;;18.70;73.60;;;19.18;48.35;99311.94;4869012;28;123935;-91
2022/06/11 04:37:25;;;;;;;9.20;4.60;;;18.70;73.70;;;19.19;48.34;99307.16;4874330;28;123490;-90
2022/06/11 04:39:55;;;;;;;8.33;3.93;;;18.70;73.80;;;19.20;48.48;99305.97;4846735;28;119787;-91
2022/06/11 04:42:24;;;;;;;4.17;2.87;;;18.70;74.00;;;19.19;48.42;99299.56;4863787;29;120104;-91
2022/06/11 04:44:53;;;;;;;4.83;2.70;;;18.70;74.10;;;19.24;48.39;99301.28;4870050;28;123784;-91
2022/06/11 04:48:18;;;;;;;5.20;3.33;;;18.70;74.20;;;19.27;48.40;99303.38;4848512;29;123353;-91
2022/06/11 04:51:05;;;;;;;4.80;3.33;;;18.70;74.20;;;19.30;48.23;99299.84;4861364;29;120016;-90
2022/06/11 04:53:34;;;;;;;7.77;3.20;;;18.70;74.30;;;19.35;48.29;99301.56;4869722;29;118562;-91
2022/06/11 04:56:40;;;;;;;5.67;3.50;;;18.80;74.40;;;19.39;48.20;99303.28;4867578;29;123623;-93
2022/06/11 04:59:08;;;;;;;4.40;3.07;;;18.80;74.40;;;19.44;48.16;99305.00;4852913;29;124185;-93
2022/06/11 05:01:37;;;;;;;4.00;2.30;;;18.80;74.40;;;19.48;48.13;99310.72;4847996;28;118824;-91
2022/06/11 05:04:04;;;;;;;7.47;3.30;;;18.90;74.40;;;19.53;47.95;99316.03;4872522;28;118649;-91
2022/06/11 05:06:38;;;;;;;7.10;3.90;;;18.90;74.40;;;19.58;47.80;99312.97;4855216;28;123575;-91
2022/06/11 05:09:09;;;;;;;8.17;3.73;;;19.00;74.40;;;19.61;47.78;99317.88;4884948;28;123589;-91
2022/06/11 05:11:36;;;;;;;4.97;3.07;;;19.00;74.30;;;19.67;47.82;99313.66;4855039;29;119269;-92
2022/06/11 05:14:24;;;;;;;4.43;2.93;;;19.10;74.40;;;19.72;47.81;99320.97;4865588;28;118277;-91
2022/06/11 05:17:48;;;;;;;3.20;2.70;;;19.10;74.40;;;19.76;47.54;99313.50;4868132;28;123036;-90
2022/06/11 05:20:16;;;;;;;3.30;2.83;;;19.10;74.30;;;19.80;47.63;99315.22;4864544;29;123188;-90
2022/06/11 05:22:45;;;;;;;4.20;3.00;;;19.10;74.30;;;19.86;47.47;99321.38;4855904;29;118691;-91
2022/06/11 05:25:18;;;;;;;3.30;2.23;;;19.20;74.40;;;19.92;47.39;99314.28;4863692;28;117915;-91
2022/06/11 05:27:46;;;;;;;4.93;2.63;;;19.30;74.50;;;19.97;47.44;99316.03;4870226;28;123633;-91
2022/06/11 05:30:26;;;;;;;3.37;2.40;;;19.30;74.40;;;20.03;47.29;99322.97;4868138;28;123276;-92
2022/06/11 05:32:54;;;;;;;2.70;1.87;;;19.40;74.50;;;20.08;47.43;99317.09;4864230;28;117888;-91
2022/06/11 05:35:40;;;;;;;2.57;1.80;;;19.40;74.30;;;20.13;47.34;99324.44;4877530;28;119520;-91
2022/06/11 05:38:12;;;;;;;2.60;1.97;;;19.50;74.30;;;20.21;47.05;99320.63;4877260;28;123365;-92
2022/06/11 05:40:42;;;;;;;2.73;2.23;;;19.50;74.20;;;20.27;46.97;99325.56;4871316;28;122855;-92
2022/06/11 05:43:47;;;;;;;6.80;2.30;;;19.60;74.10;;;20.34;46.67;99332.53;4855720;29;118379;-90
2022/06/11 05:46:34;;;;;;;2.60;2.10;;;19.60;73.80;;;20.40;46.66;99336.69;4840663;29;118786;-92
2022/06/11 05:49:08;;;;;;;5.67;2.30;;;19.70;73.80;;;20.45;46.71;99336.41;4837702;29;123747;-91
2022/06/11 05:51:44;;;;;;;8.70;3.70;;;19.80;74.00;;;20.47;46.59;99339.66;4856913;28;122817;-90
2022/06/11 05:55:09;;;;;;;9.70;5.30;;;19.80;74.10;;;20.51;46.83;99343.38;4837483;29;117588;-90
2022/06/11 05:57:35;;;;;;;9.30;5.07;;;19.80;74.10;;;20.60;46.96;99334.75;4858609;29;118745;-91
2022/06/11 06:00:23;;;;;;;9.57;4.43;;;19.90;74.20;;;20.66;46.52;99331.31;4853567;29;123411;-91
2022/06/11 06:02:50;;;;;;;11.13;5.43;;;20.00;74.20;;;20.73;46.80;99331.44;4829482;29;123463;-91
2022/06/11 06:05:26;;;;;;;12.50;5.33;;;20.00;74.10;;;20.80;46.41;99344.84;4856484;29;119165;-91
2022/06/11 06:07:54;;;;;;;10.10;4.37;;;20.10;74.20;;;20.87;46.39;99338.56;4855240;29;118624;-92
2022/06/11 06:10:40;;;;;;;8.23;3.97;;;20.10;74.10;;;20.95;46.48;99337.53;4847912;28;124194;-91
2022/06/11 06:13:45;;;;;;;7.37;3.60;;;20.30;74.10;;;21.02;46.53;99342.50;4854535;28;122111;-91
2022/06/11 06:15:54;;;;;;;5.07;2.90;;;20.30;74.00;;;21.09;46.32;99329.41;4867435;28;118267;-91
2022/06/11 06:18:22;;;;;;;5.17;2.90;;;20.40;74.10;;;21.16;46.31;99340.78;4859824;28;119011;-91
2022/06/11 06:20:51;;;;;;;3.93;2.83;;;20.40;74.00;;;21.22;45.98;99334.88;4865468;28;123698;-92
2022/06/11 06:23:17;;;;;;;12.63;4.33;;;20.50;73.90;;;21.28;46.32;99342.66;4862096;28;123935;-91
2022/06/11 06:25:44;;;;;;;12.13;6.10;;;20.60;73.80;;;21.35;46.11;99336.34;4831059;28;118932;-93
2022/06/11 06:28:10;;;;;;;17.17;7.30;;;20.60;73.70;;;21.43;46.01;99335.31;4840530;28;120109;-92
2022/06/11 06:30:37;;;;;;;22.70;8.80;;;20.70;73.70;;;21.48;45.94;99349.06;4859267;28;124786;-92
2022/06/11 06:33:05;;;;;;;21.50;7.57;;;20.80;73.60;;;21.54;45.75;99347.56;4855825;28;123797;-93
2022/06/11 06:35:32;;;;;;;16.73;7.30;;;20.80;73.40;;;21.61;45.63;99344.09;4861136;28;118948;-93
2022/06/11 06:38:02;;;;;;;22.13;8.70;;;20.90;73.40;;;21.67;45.33;99350.22;4866563;28;119039;-93
2022/06/11 06:40:30;;;;;;;23.07;8.27;;;20.90;73.10;;;21.71;45.52;99351.94;4856983;28;123155;-93
2022/06/11 06:42:58;;;;;;;16.70;5.77;;;21.00;73.10;;;21.79;45.42;99347.25;4853378;28;126020;-92
2022/06/11 06:45:29;;;;;;;11.90;5.50;;;21.10;73.00;;;21.85;45.46;99342.94;4860608;28;119387;-92
2022/06/11 06:47:55;;;;;;;9.33;3.53;;;21.10;72.90;;;21.93;45.15;99339.06;4852614;28;118260;-93
2022/06/11 06:50:23;;;;;;;5.20;3.50;;;21.20;72.80;;;22.00;45.04;99347.63;4858949;28;123673;-91
2022/06/11 06:52:49;;;;;;;9.43;3.17;;;21.30;72.60;;;22.08;44.70;99340.09;4856717;28;124151;-92
2022/06/11 06:55:16;;;;;;;4.80;2.43;;;21.30;72.40;;;22.18;44.87;99347.09;4854614;28;119734;-93
2022/06/11 06:57:43;;;;;;;4.43;2.23;;;21.40;72.40;;;22.25;44.25;99342.44;4852387;28;118814;-92
2022/06/11 07:00:11;;;;;;;3.47;2.63;;;21.50;72.30;;;22.35;44.17;99340.94;4852190;28;123332;-92
2022/06/11 07:02:39;;;;;;;6.17;3.40;;;21.60;72.00;;;22.42;43.91;99341.06;4847771;28;124561;-93
2022/06/11 07:05:08;;;;;;;7.77;3.20;;;21.70;71.70;;;22.48;43.81;99342.38;4853008;28;119761;-94
2022/06/11 07:07:35;;;;;;;7.17;3.17;;;21.80;71.50;;;22.56;43.69;99337.66;4844006;28;118593;-93
2022/06/11 07:10:03;;;;;;;5.90;2.77;;;21.80;71.30;;;22.66;43.59;99342.63;4842055;28;124764;-93
2022/06/11 07:12:30;;;;;;;29.87;7.93;;;21.90;71.20;;;22.76;43.35;99338.34;4857962;28;124471;-91
2022/06/11 07:14:58;;;;;;;40.93;9.60;;;22.00;71.20;;;22.87;43.43;99336.50;4854472;28;120270;-95
2022/06/11 07:17:29;;;;;;;34.00;8.03;;;22.10;71.10;;;22.97;43.00;99337.03;4857386;28;120393;-94
2022/06/11 07:20:03;;;;;;;24.27;5.90;;;22.20;71.10;;;23.07;43.02;99330.72;4857309;28;124321;-92
2022/06/11 07:23:27;;;;;;;13.97;4.80;;;22.30;71.00;;;23.13;43.44;99332.00;4843715;29;122490;-93
2022/06/11 07:25:56;;;;;;;8.47;3.53;;;22.40;70.80;;;23.23;43.09;99328.50;4814488;28;119178;-93
2022/06/11 07:28:33;;;;;;;5.43;2.90;;;22.50;70.80;;;23.33;42.95;99336.28;4862663;28;118265;-93
2022/06/11 07:31:00;;;;;;;10.60;4.27;;;22.50;70.60;;;23.42;42.66;99332.34;4836172;29;123315;-93
2022/06/11 07:33:27;;;;;;;10.83;4.60;;;22.60;70.40;;;23.49;42.75;99335.25;4847167;28;123690;-93
2022/06/11 07:35:54;;;;;;;7.10;3.50;;;22.70;70.20;;;23.57;42.49;99331.31;4858551;28;118530;-92
2022/06/11 07:38:23;;;;;;;6.63;3.03;;;22.80;70.10;;;23.64;42.24;99339.81;4853898;28;119075;-92
2022/06/11 07:40:51;;;;;;;4.77;2.70;;;22.80;69.70;;;23.71;42.06;99336.28;4850910;28;124153;-92
2022/06/11 07:43:18;;;;;;;4.83;2.40;;;22.90;69.40;;;23.75;42.16;99337.13;4853769;28;123959;-92
2022/06/11 07:45:45;;;;;;;2.80;2.20;;;23.00;69.20;;;23.80;41.78;99323.50;4853728;28;118828;-91
2022/06/11 07:48:12;;;;;;;2.30;1.70;;;23.10;69.10;;;23.89;41.43;99331.66;4858153;28;119060;-92
2022/06/11 07:50:46;;;;;;;16.10;5.70;;;23.10;68.70;;;23.93;41.36;99326.81;4853792;28;124082;-91
2022/06/11 07:53:13;;;;;;;18.50;6.73;;;23.20;68.50;;;24.00;41.31;99332.53;4860328;28;124043;-93
2022/06/11 07:55:44;;;;;;;12.93;5.33;;;23.20;68.30;;;24.05;41.29;99327.75;4857889;28;118432;-93
2022/06/11 07:58:14;;;;;;;12.10;5.70;;;23.30;68.10;;;24.07;41.01;99330.97;4852174;28;119776;-93
2022/06/11 08:00:45;;;;;;;12.53;5.13;;;23.30;67.70;;;24.11;40.89;99338.28;4835576;29;124033;-92
2022/06/11 08:03:12;;;;;;;7.70;3.90;;;23.40;67.50;;;24.14;40.93;99334.69;4854857;28;123035;-93
2022/06/11 08:05:39;;;;;;;8.20;3.67;;;23.40;67.40;;;24.20;40.67;99332.28;4852811;28;120223;-94
2022/06/11 08:08:07;;;;;;;7.00;2.70;;;23.50;67.30;;;24.25;40.68;99332.75;4838903;28;119118;-92
2022/06/11 08:10:38;;;;;;;6.30;2.57;;;23.50;66.90;;;24.32;40.58;99325.53;4855301;28;123557;-93
2022/06/11 08:13:05;;;;;;;3.90;2.70;;;23.60;66.80;;;24.39;40.35;99329.19;4855285;28;124670;-93
2022/06/11 08:15:32;;;;;;;8.53;4.70;;;23.70;66.60;;;24.47;40.03;99324.44;4833122;29;117175;-93
2022/06/11 08:17:58;;;;;;;6.47;3.30;;;23.70;66.40;;;24.55;40.15;99328.13;4854874;28;118022;-93
2022/06/11 08:20:30;;;;;;;11.80;5.23;;;23.80;66.20;;;24.60;39.75;99330.59;4864378;28;124573;-92
2022/06/11 08:22:57;;;;;;;14.50;6.10;;;23.90;66.00;;;24.63;39.54;99319.31;4860805;28;124392;-94
2022/06/11 08:25:24;;;;;;;9.70;4.67;;;23.90;65.40;;;24.66;39.88;99323.34;4847890;29;118185;-94
2022/06/11 08:27:51;;;;;;;6.20;3.03;;;24.00;65.40;;;24.69;39.76;99331.88;4862204;28;118091;-93
2022/06/11 08:30:22;;;;;;;8.03;3.57;;;24.00;65.30;;;24.76;39.63;99333.09;4855426;28;125030;-95
2022/06/11 08:32:50;;;;;;;8.87;4.57;;;24.00;65.10;;;24.81;39.28;99324.25;4862577;28;123550;-95
2022/06/11 08:35:24;;;;;;;7.13;3.93;;;24.10;65.00;;;24.87;39.53;99328.31;4858558;28;118627;-94
2022/06/11 08:37:51;;;;;;;6.27;3.27;;;24.20;65.00;;;24.96;39.22;99330.78;4839566;29;118685;-92
2022/06/11 08:40:31;;;;;;;5.90;2.83;;;24.20;64.80;;;25.01;38.68;99330.41;4856325;28;123347;-92
2022/06/11 08:43:23;;;;;;;20.40;6.40;;;24.30;64.40;;;25.02;38.85;99321.53;4828784;28;123603;-93
2022/06/11 08:46:07;;;;;;;13.67;6.10;;;24.30;64.20;;;25.06;38.83;99325.16;4855349;28;120708;-93
2022/06/11 08:48:42;;;;;;;8.93;4.87;;;24.40;64.10;;;25.11;38.86;99321.97;4859799;28;118400;-92
2022/06/11 08:51:32;;;;;;;6.33;3.80;;;24.50;64.00;;;25.18;38.27;99323.25;4857823;28;123146;-93
2022/06/11 08:54:10;;;;;;;8.53;3.20;;;24.50;63.50;;;25.25;38.74;99320.44;4860961;28;124470;-92
2022/06/11 08:57:06;;;;;;;4.23;2.33;;;24.60;63.50;;;25.28;38.52;99320.47;4867532;28;120111;-92
2022/06/11 09:00:07;;;;;;;5.73;2.77;;;24.60;63.10;;;25.29;37.96;99321.25;4866569;28;119154;-92
2022/06/11 09:02:52;;;;;;;6.30;1.90;;;24.70;62.30;;;25.30;37.86;99311.56;4880193;28;124216;-94
2022/06/11 09:05:48;;;;;;;4.03;2.20;;;24.70;61.20;;;25.29;37.49;99312.78;4875845;28;123031;-94
2022/06/11 09:08:53;;;;;;;6.77;3.73;;;24.70;61.30;;;25.30;37.15;99305.91;4867581;28;119166;-94
2022/06/11 09:11:47;;;;;;;5.10;2.67;;;24.80;60.30;;;25.32;37.39;99306.31;4869492;28;119609;-94
2022/06/11 09:15:00;;;;;;;6.40;3.30;;;24.70;60.80;;;25.37;37.23;99310.78;4874382;29;124823;-91
2022/06/11 09:18:07;;;;;;;9.87;4.40;;;24.80;61.10;;;25.40;36.95;99307.94;4860615;28;122977;-94
2022/06/11 09:20:42;;;;;;;6.53;3.00;;;24.80;60.20;;;25.44;36.84;99300.28;4853630;28;118417;-95
2022/06/11 09:23:36;;;;;;;2.70;2.13;;;24.90;60.30;;;25.46;37.16;99303.50;4838886;28;118205;-95
2022/06/11 09:26:34;;;;;;;3.70;2.00;;;24.90;60.30;;;25.51;36.78;99305.94;4857934;28;123083;-94
2022/06/11 09:29:25;;;;;;;3.27;2.40;;;25.00;59.80;;;25.54;36.44;99298.69;4853761;29;123769;-94
2022/06/11 09:32:14;;;;;;;1.97;1.60;;;25.00;59.50;;;25.56;36.56;99302.72;4857965;29;119705;-94
2022/06/11 09:34:52;;;;;;;1.87;1.50;;;25.00;59.30;;;25.57;36.33;99301.50;4856801;28;118759;-95
2022/06/11 09:37:47;;;;;;;2.30;1.50;;;25.00;59.10;;;25.60;36.68;99290.59;4858035;28;123720;-94
2022/06/11 09:40:31;;;;;;;3.47;2.10;;;25.10;59.10;;;25.63;36.27;99296.28;4858779;28;124022;-94
2022/06/11 09:43:28;;;;;;;3.50;2.10;;;25.10;58.50;;;25.69;35.92;99288.22;4854262;29;118728;-96
2022/06/11 09:46:32;;;;;;;6.17;2.67;;;25.10;58.40;;;25.69;35.95;99293.88;4858683;29;118551;-95
2022/06/11 09:49:27;;;;;;;6.10;1.90;;;25.10;57.90;;;25.70;35.68;99289.81;4860057;29;123280;-94
2022/06/11 09:52:16;;;;;;;4.20;2.00;;;25.10;57.90;;;25.76;36.10;99291.84;4855768;29;123342;-94
2022/06/11 09:55:14;;;;;;;4.30;2.13;;;25.20;58.20;;;25.83;36.15;99293.88;4842772;28;119780;-93
2022/06/11 09:58:08;;;;;;;10.00;4.10;;;25.30;58.10;;;25.90;35.89;99293.91;4837721;29;120228;-94
2022/06/11 10:00:44;;;;;;;5.00;2.93;;;25.30;57.90;;;25.98;36.03;99289.88;4847423;28;123332;-91
2022/06/11 10:03:30;;;;;;;3.20;1.97;;;25.40;58.10;;;26.03;35.26;99293.50;4847598;28;123540;-96
2022/06/11 10:06:15;;;;;;;6.37;3.30;;;25.40;57.50;;;26.03;35.17;99296.31;4863429;29;119050;-94
2022/06/11 10:08:57;;;;;;;5.03;2.50;;;25.50;57.20;;;26.03;35.21;99288.63;4848784;28;118412;-93
2022/06/11 10:11:58;;;;;;;6.50;2.30;;;25.50;57.20;;;26.03;34.66;99296.31;4874848;28;124717;-94
2022/06/11 10:14:53;;;;;;;2.53;1.50;;;25.50;56.50;;;26.05;35.50;99291.88;4852047;29;123816;-89
2022/06/11 10:17:36;;;;;;;4.27;2.10;;;25.50;56.80;;;26.13;35.28;99301.97;4834763;29;119671;-90
2022/06/11 10:20:42;;;;;;;3.60;2.03;;;25.60;56.90;;;26.13;34.82;99295.50;4855951;28;118860;-89
2022/06/11 10:23:14;;;;;;;1.93;1.53;;;25.60;56.00;;;26.15;34.69;99298.75;4853278;28;124871;-91
2022/06/11 10:25:47;;;;;;;4.83;1.90;;;25.60;56.10;;;26.14;34.20;99297.94;4848511;28;123854;-90
2022/06/11 10:28:33;;;;;;;2.40;1.43;;;25.60;55.40;;;26.14;34.55;99297.13;4845150;28;119405;-90
2022/06/11 10:31:12;;;;;;;2.10;1.57;;;25.70;55.70;;;26.17;34.48;99302.81;4854728;28;119238;-89
2022/06/11 10:34:03;;;;;;;1.77;1.17;;;25.70;55.80;;;26.22;34.58;99295.91;4842825;28;124278;-89
2022/06/11 10:36:39;;;;;;;1.87;1.63;;;25.70;55.90;;;26.30;34.52;99300.34;4855920;28;123872;-89
2022/06/11 10:40:24;;;;;;;3.03;1.87;;;25.70;55.80;;;26.33;34.90;99296.72;4864531;28;118772;-89
2022/06/11 10:43:14;;;;;;;5.20;2.33;;;25.80;55.70;;;26.41;34.57;99297.50;4861579;28;119587;-90
2022/06/11 10:45:40;;;;;;;7.27;3.50;;;25.80;55.90;;;26.50;34.43;99297.88;4869191;28;123558;-89
2022/06/11 10:48:31;;;;;;;9.37;4.30;;;25.90;55.90;;;26.57;34.60;99297.09;4849584;29;123369;-89
2022/06/11 10:51:00;;;;;;;6.07;3.17;;;26.00;55.40;;;26.63;34.14;99286.97;4859329;28;119865;-91
2022/06/11 10:53:55;;;;;;;8.13;3.27;;;26.00;55.60;;;26.70;34.00;99291.78;4872385;28;119717;-88
2022/06/11 10:56:38;;;;;;;7.37;3.60;;;26.10;55.40;;;26.77;34.16;99288.94;4857891;28;124760;-89
2022/06/11 10:59:52;;;;;;;6.93;3.20;;;26.20;55.30;;;26.82;34.28;99280.81;4857273;28;123344;-89
2022/06/11 11:02:39;;;;;;;8.13;3.83;;;26.20;55.10;;;26.92;34.36;99279.16;4824918;28;119378;-90
2022/06/11 11:05:11;;;;;;;4.40;2.60;;;26.30;54.90;;;27.01;33.70;99275.88;4855130;28;118995;-88
2022/06/11 11:07:58;;;;;;;3.90;2.37;;;26.40;54.70;;;27.06;33.75;99278.28;4851716;28;124159;-89
2022/06/11 11:10:36;;;;;;;3.40;1.83;;;26.50;54.20;;;27.14;33.32;99273.41;4857233;28;123042;-89
2022/06/11 11:13:23;;;;;;;2.70;1.67;;;26.60;54.30;;;27.20;33.48;99261.22;4857604;28;120120;-88
2022/06/11 11:16:13;;;;;;;4.10;2.20;;;26.60;54.10;;;27.28;33.32;99264.84;4859657;28;117802;-88
2022/06/11 11:19:16;;;;;;;5.27;3.00;;;26.70;54.00;;;27.34;33.46;99262.34;4848839;28;123368;-87
2022/06/11 11:21:59;;;;;;;4.40;2.47;;;26.80;53.50;;;27.42;32.97;99256.22;4806474;29;122391;-88
2022/06/11 11:24:34;;;;;;;2.70;2.00;;;26.80;53.30;;;27.51;32.80;99259.41;4857413;28;119720;-89
2022/06/11 11:27:26;;;;;;;4.53;2.13;;;26.90;53.20;;;27.59;32.93;99260.16;4827158;29;117508;-88
2022/06/11 11:30:09;;;;;;;3.80;1.90;;;27.00;53.00;;;27.65;32.91;99257.69;4849677;28;123868;-87
2022/06/11 11:32:37;;;;;;;4.13;2.03;;;27.10;52.90;;;27.72;32.62;99264.09;4836625;28;123224;-88
2022/06/11 11:35:27;;;;;;;1.70;1.40;;;27.10;52.90;;;27.82;32.43;99262.44;4835131;28;119908;-87
2022/06/11 11:38:23;;;;;;;2.13;1.60;;;27.20;52.80;;;27.91;32.65;99253.44;4849215;28;118549;-87
2022/06/11 11:41:01;;;;;;;3.37;2.10;;;27.30;52.60;;;28.00;32.18;99242.41;4826664;29;124090;-87
2022/06/11 11:43:41;;;;;;;5.73;2.17;;;27.40;52.00;;;28.04;31.60;99246.03;4850739;28;123623;-86
2022/06/11 11:46:19;;;;;;;3.00;1.60;;;27.50;51.60;;;28.06;31.66;99249.25;4849910;28;120728;-87
2022/06/11 11:48:52;;;;;;;3.10;1.67;;;27.50;51.10;;;27.99;30.89;99243.63;4849380;28;120000;-88
2022/06/11 11:51:30;;;;;;;3.30;1.90;;;27.50;49.80;;;27.97;31.74;99244.06;4850599;28;123188;-88
2022/06/11 11:54:12;;;;;;;2.97;1.70;;;27.50;50.50;;;28.05;31.69;99239.13;4850572;28;124025;-89
2022/06/11 11:56:58;;;;;;;3.37;1.60;;;27.50;50.70;;;28.15;31.58;99252.41;4836220;28;119510;-87
2022/06/11 11:59:31;;;;;;;1.87;1.30;;;27.60;50.80;;;28.24;31.62;99236.88;4845646;28;119153;-88
2022/06/11 12:02:15;;;;;;;3.57;1.83;;;27.70;50.70;;;28.28;31.44;99237.69;4851086;28;123410;-88
2022/06/11 12:05:13;;;;;;;4.37;1.70;;;27.70;50.40;;;28.24;31.21;99225.53;4850432;28;124285;-89
2022/06/11 12:07:46;;;;;;;2.30;1.50;;;27.70;50.20;;;28.26;31.41;99234.44;4815062;29;118453;-89
2022/06/11 12:10:36;;;;;;;4.20;2.27;;;27.70;50.20;;;28.31;31.44;99219.78;4846295;28;118791;-88
2022/06/11 12:13:20;;;;;;;4.00;2.90;;;27.80;50.40;;;28.42;31.47;99220.47;4810716;29;124409;-87
2022/06/11 12:15:54;;;;;;;10.40;5.33;;;27.80;50.60;;;28.54;31.49;99217.09;4811464;29;123842;-89
2022/06/11 12:18:29;;;;;;;10.00;4.80;;;27.90;50.60;;;28.68;31.36;99221.00;4812988;29;120551;-88
2022/06/11 12:21:02;;;;;;;6.80;3.67;;;28.00;50.80;;;28.79;31.29;99221.69;4809815;29;117869;-88
2022/06/11 12:23:39;;;;;;;6.47;3.07;;;28.10;50.80;;;28.90;31.20;99216.66;4791415;29;123172;-89
2022/06/11 12:26:22;;;;;;;2.27;1.90;;;28.20;50.30;;;28.98;30.90;99209.63;4792064;29;123770;-87
2022/06/11 12:29:06;;;;;;;2.70;1.90;;;28.30;50.20;;;29.01;30.65;99217.31;4809025;29;118861;-88